SBOSBO PFO / LCPH
Speedbird OnlineSpeedbird Online PFO / LCPH

Paphos International Airport
09:48 24.2°C

Location Paphos, Cyprus
Latitude: 34.71799850463867
Longitude: 32.48569869995117
Web Airport Website | Wikipedia
Altitude 12 Meter / 41 Feet
Distance 3,180 KM / 1,976 Miles
from London.
Time Zone UTC +3 hours (Asia/Nicosia)
Codes IATA: PFO
ICAO: LCPH
Currency £1 equals EUR 1.15
Runways
RunwayLength (m)Surface
112700Asphalt
292700Asphalt
Radio
TypeDescriptionFrequency
APPAPP120.8
TWRTWR119.9
Live ATC
METAR LCPH 060600Z 02006KT 9999 FEW020 24/11 Q1015
TAF TAF LCPH 060530Z 0606/0706 02007KT 9999 FEW030 BECMG 0607/0610 24012KT BECMG 0614/0616 30010KT BECMG 0618/0621 02007KT PROB30 TEMPO 0622/0705 BKN012
Weather As Of 06 Oct 2022 09:48
Description Few clouds
Wind 11 km/h from North (20°)
Cloud Cover 20%
Precipitation Rain: none, Snow: none
Sunrise 06:48
Sunset 18:28
Lounges Premium Lounge, Main Terminal
Rotations During the last 90 days there were
87 flights from LGW
24 flights from LHR
86 flights to LGW
24 flights to LHR


© 2017-2022 Speedbird Online